sensor_id;sensor_type;location;lat;lon;timestamp;pressure;altitude;pressure_sealevel;temperature;humidity
64698;BME280;51124;53.394;-6.294;2022-12-17T00:01:59;100793.73;;;15.93;10.67
64698;BME280;51124;53.394;-6.294;2022-12-17T00:04:32;100794.95;;;15.32;10.19
64698;BME280;51124;53.394;-6.294;2022-12-17T00:07:05;100791.09;;;17.06;9.42
64698;BME280;51124;53.394;-6.294;2022-12-17T00:09:39;100796.49;;;14.64;9.95
64698;BME280;51124;53.394;-6.294;2022-12-17T00:12:12;100792.05;;;15.41;9.47
64698;BME280;51124;53.394;-6.294;2022-12-17T00:14:46;100783.48;;;17.11;8.88
64698;BME280;51124;53.394;-6.294;2022-12-17T00:17:19;100783.33;;;14.92;9.34
64698;BME280;51124;53.394;-6.294;2022-12-17T00:19:53;100771.92;;;15.16;9.02
64698;BME280;51124;53.394;-6.294;2022-12-17T00:22:26;100776.31;;;15.73;9.16
64698;BME280;51124;53.394;-6.294;2022-12-17T00:25:00;100778.27;;;14.60;9.21
64698;BME280;51124;53.394;-6.294;2022-12-17T00:27:33;100773.16;;;15.50;9.08
64698;BME280;51124;53.394;-6.294;2022-12-17T00:30:07;100776.15;;;13.40;9.50
64698;BME280;51124;53.394;-6.294;2022-12-17T00:32:40;100769.72;;;15.09;8.82
64698;BME280;51124;53.394;-6.294;2022-12-17T00:35:14;100766.42;;;14.72;8.93
64698;BME280;51124;53.394;-6.294;2022-12-17T00:37:47;100761.01;;;15.54;8.75
64698;BME280;51124;53.394;-6.294;2022-12-17T00:40:21;100758.64;;;15.64;8.75
64698;BME280;51124;53.394;-6.294;2022-12-17T00:43:03;100755.08;;;15.14;8.71
64698;BME280;51124;53.394;-6.294;2022-12-17T00:45:27;100746.88;;;16.06;8.38
64698;BME280;51124;53.394;-6.294;2022-12-17T00:48:00;100747.78;;;16.02;8.61
64698;BME280;51124;53.394;-6.294;2022-12-17T00:50:34;100742.45;;;16.92;8.26
64698;BME280;51124;53.394;-6.294;2022-12-17T00:53:07;100747.87;;;15.03;8.58
64698;BME280;51124;53.394;-6.294;2022-12-17T00:55:41;100749.23;;;15.73;8.56
64698;BME280;51124;53.394;-6.294;2022-12-17T00:58:14;100751.42;;;15.87;8.41
64698;BME280;51124;53.394;-6.294;2022-12-17T01:00:48;100759.96;;;13.94;9.12
64698;BME280;51124;53.394;-6.294;2022-12-17T01:03:21;100747.62;;;15.82;8.34
64698;BME280;51124;53.394;-6.294;2022-12-17T01:06:01;100754.91;;;14.15;9.08
64698;BME280;51124;53.394;-6.294;2022-12-17T01:08:27;100754.04;;;16.25;8.47
64698;BME280;51124;53.394;-6.294;2022-12-17T01:10:57;100757.23;;;12.92;9.24
64698;BME280;51124;53.394;-6.294;2022-12-17T01:13:23;100749.28;;;16.59;8.24
64698;BME280;51124;53.394;-6.294;2022-12-17T01:15:48;100755.79;;;16.55;8.22
64698;BME280;51124;53.394;-6.294;2022-12-17T01:18:17;100761.35;;;14.09;8.99
64698;BME280;51124;53.394;-6.294;2022-12-17T01:20:42;100762.25;;;15.57;8.51
64698;BME280;51124;53.394;-6.294;2022-12-17T01:23:08;100764.88;;;14.82;8.94
64698;BME280;51124;53.394;-6.294;2022-12-17T01:25:33;100761.95;;;14.86;8.71
64698;BME280;51124;53.394;-6.294;2022-12-17T01:27:58;100760.73;;;15.54;8.51
64698;BME280;51124;53.394;-6.294;2022-12-17T01:30:24;100759.34;;;15.62;8.51
64698;BME280;51124;53.394;-6.294;2022-12-17T01:32:49;100760.05;;;15.33;8.44
64698;BME280;51124;53.394;-6.294;2022-12-17T01:35:14;100761.90;;;14.44;8.71
64698;BME280;51124;53.394;-6.294;2022-12-17T01:37:39;100762.00;;;16.11;8.57
64698;BME280;51124;53.394;-6.294;2022-12-17T01:40:06;100760.95;;;16.21;8.23
64698;BME280;51124;53.394;-6.294;2022-12-17T01:42:37;100761.21;;;15.05;8.54
64698;BME280;51124;53.394;-6.294;2022-12-17T01:45:05;100766.99;;;13.64;8.96
64698;BME280;51124;53.394;-6.294;2022-12-17T01:47:34;100763.73;;;15.37;8.70
64698;BME280;51124;53.394;-6.294;2022-12-17T01:50:01;100757.52;;;17.46;8.56
64698;BME280;51124;53.394;-6.294;2022-12-17T01:52:27;100761.88;;;17.19;9.07
64698;BME280;51124;53.394;-6.294;2022-12-17T01:54:53;100760.75;;;15.81;9.16
64698;BME280;51124;53.394;-6.294;2022-12-17T01:57:19;100761.03;;;17.96;9.38
64698;BME280;51124;53.394;-6.294;2022-12-17T01:59:48;100765.40;;;18.44;9.88
64698;BME280;51124;53.394;-6.294;2022-12-17T02:02:14;100762.17;;;17.19;10.53
64698;BME280;51124;53.394;-6.294;2022-12-17T02:04:40;100761.64;;;17.07;10.69
64698;BME280;51124;53.394;-6.294;2022-12-17T02:07:17;100761.92;;;17.65;10.62
64698;BME280;51124;53.394;-6.294;2022-12-17T02:09:41;100763.14;;;16.70;10.96
64698;BME280;51124;53.394;-6.294;2022-12-17T02:12:06;100764.54;;;16.22;11.37
64698;BME280;51124;53.394;-6.294;2022-12-17T02:14:40;100768.12;;;17.21;10.84
64698;BME280;51124;53.394;-6.294;2022-12-17T02:17:13;100768.24;;;17.57;10.76
64698;BME280;51124;53.394;-6.294;2022-12-17T02:19:48;100774.93;;;16.63;11.46
64698;BME280;51124;53.394;-6.294;2022-12-17T02:22:19;100773.47;;;17.02;11.16
64698;BME280;51124;53.394;-6.294;2022-12-17T02:24:45;100774.44;;;16.00;11.46
64698;BME280;51124;53.394;-6.294;2022-12-17T02:27:06;100775.10;;;16.86;11.06
64698;BME280;51124;53.394;-6.294;2022-12-17T02:29:37;100774.24;;;16.12;11.56
64698;BME280;51124;53.394;-6.294;2022-12-17T02:32:05;100773.22;;;16.53;11.24
64698;BME280;51124;53.394;-6.294;2022-12-17T02:34:31;100772.35;;;16.55;11.29
64698;BME280;51124;53.394;-6.294;2022-12-17T02:36:57;100775.28;;;16.41;11.21
64698;BME280;51124;53.394;-6.294;2022-12-17T02:39:23;100775.93;;;16.65;11.41
64698;BME280;51124;53.394;-6.294;2022-12-17T02:41:51;100774.94;;;16.78;11.30
64698;BME280;51124;53.394;-6.294;2022-12-17T02:44:20;100783.01;;;15.66;11.57
64698;BME280;51124;53.394;-6.294;2022-12-17T02:46:47;100782.03;;;17.52;10.92
64698;BME280;51124;53.394;-6.294;2022-12-17T02:49:13;100784.93;;;13.42;11.10
64698;BME280;51124;53.394;-6.294;2022-12-17T02:51:38;100777.96;;;14.39;10.29
64698;BME280;51124;53.394;-6.294;2022-12-17T02:54:05;100779.30;;;13.43;10.21
64698;BME280;51124;53.394;-6.294;2022-12-17T02:56:30;100776.56;;;14.05;9.96
64698;BME280;51124;53.394;-6.294;2022-12-17T02:58:55;100773.30;;;14.49;9.51
64698;BME280;51124;53.394;-6.294;2022-12-17T03:01:21;100772.73;;;14.92;9.29
64698;BME280;51124;53.394;-6.294;2022-12-17T03:03:46;100770.34;;;14.17;9.32
64698;BME280;51124;53.394;-6.294;2022-12-17T03:06:11;100773.08;;;14.36;9.20
64698;BME280;51124;53.394;-6.294;2022-12-17T03:08:37;100772.58;;;13.44;9.40
64698;BME280;51124;53.394;-6.294;2022-12-17T03:11:02;100770.77;;;13.75;9.18
64698;BME280;51124;53.394;-6.294;2022-12-17T03:13:28;100768.11;;;13.41;9.35
64698;BME280;51124;53.394;-6.294;2022-12-17T03:15:54;100764.84;;;14.96;8.78
64698;BME280;51124;53.394;-6.294;2022-12-17T03:18:19;100763.26;;;14.46;8.84
64698;BME280;51124;53.394;-6.294;2022-12-17T03:20:44;100759.72;;;14.93;8.63
64698;BME280;51124;53.394;-6.294;2022-12-17T03:23:11;100758.62;;;14.30;8.95
64698;BME280;51124;53.394;-6.294;2022-12-17T03:25:36;100759.05;;;13.64;8.99
64698;BME280;51124;53.394;-6.294;2022-12-17T03:28:04;100750.65;;;14.92;8.55
64698;BME280;51124;53.394;-6.294;2022-12-17T03:30:29;100755.11;;;14.64;8.69
64698;BME280;51124;53.394;-6.294;2022-12-17T03:32:54;100756.18;;;14.24;8.71
64698;BME280;51124;53.394;-6.294;2022-12-17T03:35:20;100751.12;;;14.09;8.82
64698;BME280;51124;53.394;-6.294;2022-12-17T03:37:45;100748.95;;;13.77;8.79
64698;BME280;51124;53.394;-6.294;2022-12-17T03:40:11;100743.99;;;13.66;8.86
64698;BME280;51124;53.394;-6.294;2022-12-17T03:42:36;100745.97;;;15.12;8.37
64698;BME280;51124;53.394;-6.294;2022-12-17T03:45:01;100747.89;;;15.21;8.40
64698;BME280;51124;53.394;-6.294;2022-12-17T03:47:27;100750.85;;;14.00;8.85
64698;BME280;51124;53.394;-6.294;2022-12-17T03:49:52;100740.78;;;14.63;8.56
64698;BME280;51124;53.394;-6.294;2022-12-17T03:52:17;100738.65;;;14.31;8.51
64698;BME280;51124;53.394;-6.294;2022-12-17T03:54:42;100736.83;;;15.24;8.33
64698;BME280;51124;53.394;-6.294;2022-12-17T03:57:08;100738.54;;;15.03;8.35
64698;BME280;51124;53.394;-6.294;2022-12-17T03:59:33;100743.01;;;13.75;8.70
64698;BME280;51124;53.394;-6.294;2022-12-17T04:01:59;100738.31;;;15.56;8.40
64698;BME280;51124;53.394;-6.294;2022-12-17T04:04:24;100739.87;;;13.67;8.86
64698;BME280;51124;53.394;-6.294;2022-12-17T04:06:50;100739.12;;;16.07;8.09
64698;BME280;51124;53.394;-6.294;2022-12-17T04:09:15;100735.57;;;16.55;8.14
64698;BME280;51124;53.394;-6.294;2022-12-17T04:11:40;100738.48;;;14.68;8.59
64698;BME280;51124;53.394;-6.294;2022-12-17T04:14:06;100733.40;;;16.00;8.25
64698;BME280;51124;53.394;-6.294;2022-12-17T04:16:31;100741.18;;;14.58;8.57
64698;BME280;51124;53.394;-6.294;2022-12-17T04:18:56;100735.24;;;15.09;8.38
64698;BME280;51124;53.394;-6.294;2022-12-17T04:21:21;100736.55;;;15.59;8.34
64698;BME280;51124;53.394;-6.294;2022-12-17T04:23:47;100741.64;;;14.44;8.63
64698;BME280;51124;53.394;-6.294;2022-12-17T04:26:12;100740.33;;;14.21;8.65
64698;BME280;51124;53.394;-6.294;2022-12-17T04:28:37;100732.08;;;15.19;8.28
64698;BME280;51124;53.394;-6.294;2022-12-17T04:31:03;100728.36;;;15.96;8.08
64698;BME280;51124;53.394;-6.294;2022-12-17T04:33:28;100740.77;;;14.47;8.68
64698;BME280;51124;53.394;-6.294;2022-12-17T04:35:53;100734.80;;;15.19;8.34
64698;BME280;51124;53.394;-6.294;2022-12-17T04:38:19;100744.40;;;17.88;8.62
64698;BME280;51124;53.394;-6.294;2022-12-17T04:40:44;100746.84;;;16.32;9.28
64698;BME280;51124;53.394;-6.294;2022-12-17T04:43:11;100745.31;;;14.82;9.27
64698;BME280;51124;53.394;-6.294;2022-12-17T04:45:37;100743.83;;;17.45;9.64
64698;BME280;51124;53.394;-6.294;2022-12-17T04:48:04;100739.91;;;16.90;10.30
64698;BME280;51124;53.394;-6.294;2022-12-17T04:50:31;100739.55;;;16.98;10.55
64698;BME280;51124;53.394;-6.294;2022-12-17T04:52:59;100733.41;;;16.73;10.78
64698;BME280;51124;53.394;-6.294;2022-12-17T04:55:25;100737.06;;;17.20;10.52
64698;BME280;51124;53.394;-6.294;2022-12-17T04:57:51;100730.47;;;16.57;10.89
64698;BME280;51124;53.394;-6.294;2022-12-17T05:00:17;100736.82;;;15.59;11.06
64698;BME280;51124;53.394;-6.294;2022-12-17T05:02:43;100727.42;;;17.57;10.66
64698;BME280;51124;53.394;-6.294;2022-12-17T05:05:09;100730.66;;;16.56;11.15
64698;BME280;51124;53.394;-6.294;2022-12-17T05:07:35;100729.40;;;17.87;10.65
64698;BME280;51124;53.394;-6.294;2022-12-17T05:10:00;100731.84;;;15.61;11.30
64698;BME280;51124;53.394;-6.294;2022-12-17T05:12:26;100732.60;;;15.86;11.23
64698;BME280;51124;53.394;-6.294;2022-12-17T05:14:52;100733.34;;;16.86;10.98
64698;BME280;51124;53.394;-6.294;2022-12-17T05:17:18;100733.10;;;15.96;11.13
64698;BME280;51124;53.394;-6.294;2022-12-17T05:19:44;100734.11;;;16.05;11.39
64698;BME280;51124;53.394;-6.294;2022-12-17T05:22:09;100732.09;;;16.35;11.15
64698;BME280;51124;53.394;-6.294;2022-12-17T05:24:35;100729.95;;;16.09;11.13
64698;BME280;51124;53.394;-6.294;2022-12-17T05:27:01;100731.60;;;17.33;10.79
64698;BME280;51124;53.394;-6.294;2022-12-17T05:29:27;100739.99;;;14.97;11.52
64698;BME280;51124;53.394;-6.294;2022-12-17T05:31:53;100735.00;;;17.25;10.88
64698;BME280;51124;53.394;-6.294;2022-12-17T05:34:19;100739.10;;;16.23;11.29
64698;BME280;51124;53.394;-6.294;2022-12-17T05:36:44;100736.80;;;12.68;11.12
64698;BME280;51124;53.394;-6.294;2022-12-17T05:39:10;100734.08;;;14.01;10.32
64698;BME280;51124;53.394;-6.294;2022-12-17T05:41:36;100739.07;;;13.49;10.23
64698;BME280;51124;53.394;-6.294;2022-12-17T05:44:01;100739.64;;;14.37;9.78
64698;BME280;51124;53.394;-6.294;2022-12-17T05:46:26;100735.29;;;13.75;9.52
64698;BME280;51124;53.394;-6.294;2022-12-17T05:48:52;100734.15;;;13.45;9.63
64698;BME280;51124;53.394;-6.294;2022-12-17T05:51:17;100733.80;;;13.70;9.37
64698;BME280;51124;53.394;-6.294;2022-12-17T05:53:43;100733.04;;;15.52;8.75
64698;BME280;51124;53.394;-6.294;2022-12-17T05:56:08;100734.38;;;14.01;9.08
64698;BME280;51124;53.394;-6.294;2022-12-17T05:58:34;100734.44;;;14.12;8.95
64698;BME280;51124;53.394;-6.294;2022-12-17T06:01:00;100730.58;;;15.49;8.47
64698;BME280;51124;53.394;-6.294;2022-12-17T06:03:26;100731.87;;;14.02;8.83
64698;BME280;51124;53.394;-6.294;2022-12-17T06:05:54;100734.63;;;14.95;8.56
64698;BME280;51124;53.394;-6.294;2022-12-17T06:08:19;100733.71;;;15.22;8.57
64698;BME280;51124;53.394;-6.294;2022-12-17T06:10:45;100731.91;;;14.05;8.73
64698;BME280;51124;53.394;-6.294;2022-12-17T06:13:10;100734.02;;;14.26;8.77
64698;BME280;51124;53.394;-6.294;2022-12-17T06:15:35;100735.12;;;14.78;8.46
64698;BME280;51124;53.394;-6.294;2022-12-17T06:18:00;100740.23;;;14.20;8.67
64698;BME280;51124;53.394;-6.294;2022-12-17T06:20:26;100748.29;;;14.68;8.47
64698;BME280;51124;53.394;-6.294;2022-12-17T06:22:59;100748.43;;;13.56;8.80
64698;BME280;51124;53.394;-6.294;2022-12-17T06:25:24;100750.22;;;14.23;8.59
64698;BME280;51124;53.394;-6.294;2022-12-17T06:27:55;100749.61;;;13.97;8.72
64698;BME280;51124;53.394;-6.294;2022-12-17T06:30:21;100752.55;;;13.53;8.74
64698;BME280;51124;53.394;-6.294;2022-12-17T06:32:46;100750.77;;;13.29;8.79
64698;BME280;51124;53.394;-6.294;2022-12-17T06:35:11;100754.49;;;12.83;8.87
64698;BME280;51124;53.394;-6.294;2022-12-17T06:37:36;100750.48;;;13.77;8.73
64698;BME280;51124;53.394;-6.294;2022-12-17T06:40:02;100754.75;;;14.00;8.75
64698;BME280;51124;53.394;-6.294;2022-12-17T06:42:27;100754.23;;;14.56;8.43
64698;BME280;51124;53.394;-6.294;2022-12-17T06:44:53;100751.18;;;13.85;8.60
64698;BME280;51124;53.394;-6.294;2022-12-17T06:47:18;100753.97;;;14.53;8.33
64698;BME280;51124;53.394;-6.294;2022-12-17T06:49:43;100752.59;;;13.98;8.49
64698;BME280;51124;53.394;-6.294;2022-12-17T06:52:09;100751.69;;;14.07;8.54
64698;BME280;51124;53.394;-6.294;2022-12-17T06:54:34;100750.21;;;13.17;8.77
64698;BME280;51124;53.394;-6.294;2022-12-17T06:56:59;100750.87;;;14.20;8.64
64698;BME280;51124;53.394;-6.294;2022-12-17T06:59:22;100748.50;;;14.09;8.72
64698;BME280;51124;53.394;-6.294;2022-12-17T07:01:56;100753.65;;;15.10;8.39
64698;BME280;51124;53.394;-6.294;2022-12-17T07:04:29;100752.48;;;14.88;8.30
64698;BME280;51124;53.394;-6.294;2022-12-17T07:07:03;100749.75;;;14.99;8.29
64698;BME280;51124;53.394;-6.294;2022-12-17T07:09:36;100748.56;;;13.90;8.73
64698;BME280;51124;53.394;-6.294;2022-12-17T07:12:09;100751.98;;;13.87;8.85
64698;BME280;51124;53.394;-6.294;2022-12-17T07:14:43;100747.41;;;14.25;8.47
64698;BME280;51124;53.394;-6.294;2022-12-17T07:17:16;100745.34;;;13.79;8.59
64698;BME280;51124;53.394;-6.294;2022-12-17T07:19:49;100748.03;;;14.61;8.47
64698;BME280;51124;53.394;-6.294;2022-12-17T07:22:23;100744.08;;;15.19;8.09
64698;BME280;51124;53.394;-6.294;2022-12-17T07:24:56;100750.19;;;17.19;8.49
64698;BME280;51124;53.394;-6.294;2022-12-17T07:27:30;100754.29;;;17.53;8.76
64698;BME280;51124;53.394;-6.294;2022-12-17T07:30:04;100761.97;;;14.32;9.24
64698;BME280;51124;53.394;-6.294;2022-12-17T07:32:38;100763.63;;;16.78;9.44
64698;BME280;51124;53.394;-6.294;2022-12-17T07:35:12;100771.32;;;16.89;9.92
64698;BME280;51124;53.394;-6.294;2022-12-17T07:37:46;100766.78;;;17.05;10.05
64698;BME280;51124;53.394;-6.294;2022-12-17T07:40:20;100768.35;;;17.99;10.15
64698;BME280;51124;53.394;-6.294;2022-12-17T07:42:53;100772.33;;;16.38;10.76
64698;BME280;51124;53.394;-6.294;2022-12-17T07:45:27;100776.17;;;16.33;10.72
64698;BME280;51124;53.394;-6.294;2022-12-17T07:48:02;100786.50;;;15.43;11.25
64698;BME280;51124;53.394;-6.294;2022-12-17T07:50:36;100787.55;;;14.63;11.65
64698;BME280;51124;53.394;-6.294;2022-12-17T07:53:10;100780.48;;;16.83;10.95
64698;BME280;51124;53.394;-6.294;2022-12-17T07:55:43;100777.86;;;18.33;10.36
64698;BME280;51124;53.394;-6.294;2022-12-17T07:58:17;100778.97;;;17.82;10.39
64698;BME280;51124;53.394;-6.294;2022-12-17T08:00:51;100782.82;;;17.65;10.51
64698;BME280;51124;53.394;-6.294;2022-12-17T08:03:25;100780.44;;;18.90;10.10
64698;BME280;51124;53.394;-6.294;2022-12-17T08:05:59;100780.04;;;18.20;10.28
64698;BME280;51124;53.394;-6.294;2022-12-17T08:08:33;100786.95;;;18.68;10.14
64698;BME280;51124;53.394;-6.294;2022-12-17T08:11:07;100789.89;;;18.08;10.29
64698;BME280;51124;53.394;-6.294;2022-12-17T08:13:41;100791.40;;;18.57;10.02
64698;BME280;51124;53.394;-6.294;2022-12-17T08:16:15;100790.08;;;18.69;9.90
64698;BME280;51124;53.394;-6.294;2022-12-17T08:18:49;100792.36;;;18.61;10.11
64698;BME280;51124;53.394;-6.294;2022-12-17T08:21:23;100793.07;;;18.54;10.09
64698;BME280;51124;53.394;-6.294;2022-12-17T08:23:56;100793.07;;;16.61;9.93
64698;BME280;51124;53.394;-6.294;2022-12-17T08:26:30;100793.57;;;16.23;9.26
64698;BME280;51124;53.394;-6.294;2022-12-17T08:29:03;100794.64;;;15.36;9.15
64698;BME280;51124;53.394;-6.294;2022-12-17T08:31:36;100794.91;;;16.44;8.83
64698;BME280;51124;53.394;-6.294;2022-12-17T08:34:10;100795.60;;;16.52;8.60
64698;BME280;51124;53.394;-6.294;2022-12-17T08:36:43;100797.47;;;15.41;8.64
64698;BME280;51124;53.394;-6.294;2022-12-17T08:39:17;100802.34;;;15.18;8.71
64698;BME280;51124;53.394;-6.294;2022-12-17T08:41:50;100806.14;;;14.87;8.63
64698;BME280;51124;53.394;-6.294;2022-12-17T08:44:23;100807.63;;;15.51;8.64
64698;BME280;51124;53.394;-6.294;2022-12-17T08:46:57;100808.15;;;14.76;8.94
64698;BME280;51124;53.394;-6.294;2022-12-17T08:49:30;100810.14;;;15.03;8.68
64698;BME280;51124;53.394;-6.294;2022-12-17T08:52:04;100807.00;;;15.67;8.35
64698;BME280;51124;53.394;-6.294;2022-12-17T08:54:37;100810.09;;;16.08;8.40
64698;BME280;51124;53.394;-6.294;2022-12-17T08:57:10;100814.38;;;15.11;8.42
64698;BME280;51124;53.394;-6.294;2022-12-17T08:59:44;100818.45;;;14.33;8.53
64698;BME280;51124;53.394;-6.294;2022-12-17T09:02:17;100823.55;;;13.91;8.69
64698;BME280;51124;53.394;-6.294;2022-12-17T09:04:50;100818.27;;;15.86;8.08
64698;BME280;51124;53.394;-6.294;2022-12-17T09:07:24;100816.36;;;16.60;7.81
64698;BME280;51124;53.394;-6.294;2022-12-17T09:09:57;100818.06;;;16.11;8.03
64698;BME280;51124;53.394;-6.294;2022-12-17T09:12:30;100822.09;;;17.23;7.80
64698;BME280;51124;53.394;-6.294;2022-12-17T09:15:04;100820.74;;;17.13;7.92
64698;BME280;51124;53.394;-6.294;2022-12-17T09:17:38;100821.29;;;16.89;7.94
64698;BME280;51124;53.394;-6.294;2022-12-17T09:20:11;100822.70;;;17.17;7.86
64698;BME280;51124;53.394;-6.294;2022-12-17T09:22:45;100825.59;;;15.99;8.15
64698;BME280;51124;53.394;-6.294;2022-12-17T09:25:18;100834.84;;;16.51;8.08
64698;BME280;51124;53.394;-6.294;2022-12-17T09:27:52;100833.07;;;16.31;8.11
64698;BME280;51124;53.394;-6.294;2022-12-17T09:30:25;100844.19;;;15.73;8.32
64698;BME280;51124;53.394;-6.294;2022-12-17T09:32:59;100842.92;;;16.96;7.99
64698;BME280;51124;53.394;-6.294;2022-12-17T09:35:32;100848.58;;;16.16;8.14
64698;BME280;51124;53.394;-6.294;2022-12-17T09:38:05;100857.19;;;16.93;7.94
64698;BME280;51124;53.394;-6.294;2022-12-17T09:40:40;100861.63;;;15.71;8.05
64698;BME280;51124;53.394;-6.294;2022-12-17T09:43:22;100871.28;;;15.51;8.33
64698;BME280;51124;53.394;-6.294;2022-12-17T09:45:52;100867.39;;;16.39;8.09
64698;BME280;51124;53.394;-6.294;2022-12-17T09:48:22;100868.12;;;16.88;8.02
64698;BME280;51124;53.394;-6.294;2022-12-17T09:50:49;100872.36;;;17.30;8.03
64698;BME280;51124;53.394;-6.294;2022-12-17T09:53:19;100878.71;;;17.43;8.05
64698;BME280;51124;53.394;-6.294;2022-12-17T09:55:46;100880.53;;;16.29;8.10
64698;BME280;51124;53.394;-6.294;2022-12-17T09:58:18;100881.33;;;16.25;8.31
64698;BME280;51124;53.394;-6.294;2022-12-17T10:00:42;100880.73;;;16.29;8.25
64698;BME280;51124;53.394;-6.294;2022-12-17T10:03:17;100876.59;;;15.29;8.27
64698;BME280;51124;53.394;-6.294;2022-12-17T10:05:42;100880.47;;;14.97;8.34
64698;BME280;51124;53.394;-6.294;2022-12-17T10:08:10;100876.47;;;14.52;9.33
64698;BME280;51124;53.394;-6.294;2022-12-17T10:10:42;100884.44;;;11.76;10.98
64698;BME280;51124;53.394;-6.294;2022-12-17T10:13:10;100881.27;;;13.72;10.95
64698;BME280;51124;53.394;-6.294;2022-12-17T10:15:33;100879.25;;;15.25;11.51
64698;BME280;51124;53.394;-6.294;2022-12-17T10:18:10;100879.01;;;15.97;10.88
64698;BME280;51124;53.394;-6.294;2022-12-17T10:20:37;100877.98;;;15.83;8.97
64698;BME280;51124;53.394;-6.294;2022-12-17T10:23:02;100880.79;;;18.83;8.37
64698;BME280;51124;53.394;-6.294;2022-12-17T10:25:36;100888.08;;;16.93;9.35
64698;BME280;51124;53.394;-6.294;2022-12-17T10:28:12;100889.19;;;16.99;9.55
64698;BME280;51124;53.394;-6.294;2022-12-17T10:30:37;100890.52;;;17.16;9.59
64698;BME280;51124;53.394;-6.294;2022-12-17T10:33:15;100891.35;;;16.83;10.33
64698;BME280;51124;53.394;-6.294;2022-12-17T10:35:40;100894.79;;;17.62;11.30
64698;BME280;51124;53.394;-6.294;2022-12-17T10:38:20;100896.82;;;16.80;12.19
64698;BME280;51124;53.394;-6.294;2022-12-17T10:40:44;100905.20;;;16.62;12.61
64698;BME280;51124;53.394;-6.294;2022-12-17T10:43:22;100903.82;;;17.38;12.44
64698;BME280;51124;53.394;-6.294;2022-12-17T10:45:52;100905.70;;;15.66;13.00
64698;BME280;51124;53.394;-6.294;2022-12-17T10:48:18;100902.13;;;17.17;12.27
64698;BME280;51124;53.394;-6.294;2022-12-17T10:50:42;100905.40;;;17.49;12.30
64698;BME280;51124;53.394;-6.294;2022-12-17T10:53:19;100906.08;;;17.85;12.26
64698;BME280;51124;53.394;-6.294;2022-12-17T10:55:48;100902.57;;;17.22;12.46
64698;BME280;51124;53.394;-6.294;2022-12-17T10:58:14;100901.39;;;17.56;12.20
64698;BME280;51124;53.394;-6.294;2022-12-17T11:00:42;100900.21;;;17.85;12.45
64698;BME280;51124;53.394;-6.294;2022-12-17T11:03:22;100899.37;;;17.36;12.33
64698;BME280;51124;53.394;-6.294;2022-12-17T11:05:35;100894.91;;;16.02;12.90
64698;BME280;51124;53.394;-6.294;2022-12-17T11:08:01;100894.45;;;17.34;12.55
64698;BME280;51124;53.394;-6.294;2022-12-17T11:10:40;100897.53;;;16.69;12.80
64698;BME280;51124;53.394;-6.294;2022-12-17T11:13:08;100899.34;;;15.76;12.59
64698;BME280;51124;53.394;-6.294;2022-12-17T11:15:37;100893.31;;;15.28;11.85
64698;BME280;51124;53.394;-6.294;2022-12-17T11:18:00;100887.46;;;14.90;11.41
64698;BME280;51124;53.394;-6.294;2022-12-17T11:20:43;100885.15;;;15.54;11.36
64698;BME280;51124;53.394;-6.294;2022-12-17T11:23:16;100882.81;;;15.10;10.90
64698;BME280;51124;53.394;-6.294;2022-12-17T11:25:43;100878.49;;;15.08;10.53
64698;BME280;51124;53.394;-6.294;2022-12-17T11:28:14;100876.74;;;14.14;10.66
64698;BME280;51124;53.394;-6.294;2022-12-17T11:30:44;100880.33;;;13.63;10.65
64698;BME280;51124;53.394;-6.294;2022-12-17T11:33:13;100876.12;;;15.04;10.04
64698;BME280;51124;53.394;-6.294;2022-12-17T11:35:47;100874.84;;;14.40;10.25
64698;BME280;51124;53.394;-6.294;2022-12-17T11:38:22;100866.65;;;15.90;9.66
64698;BME280;51124;53.394;-6.294;2022-12-17T11:40:40;100865.86;;;15.82;9.74
64698;BME280;51124;53.394;-6.294;2022-12-17T11:43:11;100871.09;;;13.92;10.25
64698;BME280;51124;53.394;-6.294;2022-12-17T11:45:47;100868.28;;;17.25;8.93
64698;BME280;51124;53.394;-6.294;2022-12-17T11:48:09;100868.59;;;18.09;8.69
64698;BME280;51124;53.394;-6.294;2022-12-17T11:50:42;100869.18;;;17.29;8.66
64698;BME280;51124;53.394;-6.294;2022-12-17T11:53:18;100864.31;;;17.15;8.57
64698;BME280;51124;53.394;-6.294;2022-12-17T11:55:44;100862.31;;;17.46;8.63
64698;BME280;51124;53.394;-6.294;2022-12-17T11:58:15;100861.13;;;17.08;8.66
64698;BME280;51124;53.394;-6.294;2022-12-17T12:00:46;100859.74;;;16.99;8.48
64698;BME280;51124;53.394;-6.294;2022-12-17T12:03:22;100852.62;;;16.86;8.44
64698;BME280;51124;53.394;-6.294;2022-12-17T12:05:50;100851.99;;;16.04;8.82
64698;BME280;51124;53.394;-6.294;2022-12-17T12:08:21;100849.81;;;16.35;8.78
64698;BME280;51124;53.394;-6.294;2022-12-17T12:10:51;100850.08;;;16.83;8.95
64698;BME280;51124;53.394;-6.294;2022-12-17T12:13:23;100851.60;;;17.75;8.83
64698;BME280;51124;53.394;-6.294;2022-12-17T12:15:56;100851.88;;;17.36;8.75
64698;BME280;51124;53.394;-6.294;2022-12-17T12:18:27;100847.81;;;16.64;8.85
64698;BME280;51124;53.394;-6.294;2022-12-17T12:21:07;100841.21;;;17.92;8.57
64698;BME280;51124;53.394;-6.294;2022-12-17T12:23:28;100835.97;;;15.92;9.27
64698;BME280;51124;53.394;-6.294;2022-12-17T12:26:02;100834.08;;;16.87;8.70
64698;BME280;51124;53.394;-6.294;2022-12-17T12:28:33;100832.84;;;16.85;8.77
64698;BME280;51124;53.394;-6.294;2022-12-17T12:31:09;100831.70;;;17.43;8.67
64698;BME280;51124;53.394;-6.294;2022-12-17T12:33:43;100826.88;;;18.13;8.24
64698;BME280;51124;53.394;-6.294;2022-12-17T12:36:00;100830.15;;;19.32;8.16
64698;BME280;51124;53.394;-6.294;2022-12-17T12:38:27;100831.43;;;17.51;8.53
64698;BME280;51124;53.394;-6.294;2022-12-17T12:40:56;100829.69;;;18.31;8.29
64698;BME280;51124;53.394;-6.294;2022-12-17T12:43:22;100829.27;;;18.25;8.26
64698;BME280;51124;53.394;-6.294;2022-12-17T12:45:51;100825.70;;;18.37;8.13
64698;BME280;51124;53.394;-6.294;2022-12-17T12:48:27;100821.81;;;18.41;8.22
64698;BME280;51124;53.394;-6.294;2022-12-17T12:50:56;100822.30;;;18.69;8.12
64698;BME280;51124;53.394;-6.294;2022-12-17T12:53:22;100826.65;;;19.62;7.92
64698;BME280;51124;53.394;-6.294;2022-12-17T12:55:55;100829.54;;;18.62;8.06
64698;BME280;51124;53.394;-6.294;2022-12-17T12:58:30;100831.98;;;19.09;7.94